Time;durP1;ratioP1;P1;durP2;ratioP2;P2;SDS_P1;SDS_P2;PMS_P1;PMS_P2;Temp;Humidity;BMP_temperature;BMP_pressure;BME280_temperature;BME280_humidity;BME280_pressure;Samples;Min_cycle;Max_cycle;Signal;HPM_P1;HPM_P2
2024/04/17 00:05:54;;;;;;;1.85;1.75;;;4.60;99.90;;;;;;5007310;28;20015;-84
2024/04/17 00:08:41;;;;;;;1.90;1.80;;;4.60;99.90;;;;;;5168717;22;20013;-82
2024/04/17 00:12:23;;;;;;;2.40;2.15;;;4.70;99.90;;;;;;5209838;22;20009;-82
2024/04/17 00:22:39;;;;;;;2.00;1.80;;;4.60;44.30;;;;;;5112962;27;20011;-83
2024/04/17 00:31:24;;;;;;;2.30;2.20;;;4.60;99.90;;;;;;5025369;27;20018;-82
2024/04/17 00:43:27;;;;;;;2.60;2.20;;;4.60;99.90;;;;;;5030437;28;20138;-85
2024/04/17 00:47:34;;;;;;;2.22;2.05;;;4.60;99.90;;;;;;5010356;28;20019;-87
2024/04/17 00:56:16;;;;;;;2.63;2.10;;;4.60;99.90;;;;;;5016228;28;20007;-87
2024/04/17 00:59:30;;;;;;;2.08;1.80;;;4.50;99.90;;;;;;5069113;28;20023;-82
2024/04/17 01:02:44;;;;;;;2.17;2.03;;;4.50;1.00;;;;;;5045164;28;20018;-81
2024/04/17 01:06:39;;;;;;;2.70;2.05;;;4.50;1.00;;;;;;4955533;28;20021;-83
2024/04/17 01:11:13;;;;;;;;;;;;;;;;;;;;;
2024/04/17 01:15:22;;;;;;;;;;;;;;;;;;;;;
2024/04/17 01:29:24;;;;;;;2.33;1.95;;;4.40;1.00;;;;;;5118408;27;20072;-83
2024/04/17 01:32:34;;;;;;;1.90;1.67;;;4.40;1.00;;;;;;5126918;27;20417;-84
2024/04/17 01:35:50;;;;;;;2.55;1.83;;;4.40;1.00;;;;;;5143550;27;20072;-83
2024/04/17 01:39:35;;;;;;;1.50;1.40;;;4.40;1.00;;;;;;5117026;27;20423;-82
2024/04/17 01:47:29;;;;;;;;;;;;;;;;;;;;;
2024/04/17 02:03:25;;;;;;;1.48;1.38;;;4.30;99.90;;;;;;5246946;22;20009;-84
2024/04/17 02:06:26;;;;;;;1.10;1.10;;;4.30;99.90;;;;;;5106050;27;20013;-84
2024/04/17 02:10:01;;;;;;;;;;;;;;;;;;;;;
2024/04/17 02:13:19;;;;;;;1.00;1.00;;;4.30;77.60;;;;;;5109762;27;20024;-85
2024/04/17 02:16:09;;;;;;;1.10;1.10;;;4.30;20.40;;;;;;5122862;27;20012;-83
2024/04/17 02:19:27;;;;;;;1.27;1.20;;;4.30;1.00;;;;;;5214391;22;20017;-81
2024/04/17 02:22:15;;;;;;;1.13;1.10;;;4.30;1.00;;;;;;5125695;27;20019;-86
2024/04/17 02:25:27;;;;;;;1.40;1.30;;;4.30;1.00;;;;;;5153713;27;20012;-83
2024/04/17 02:28:33;;;;;;;1.48;1.02;;;4.30;1.00;;;;;;5128323;27;20044;-83
2024/04/17 02:31:47;;;;;;;1.10;1.10;;;4.30;99.90;;;;;;5116312;27;20261;-83
2024/04/17 02:35:00;;;;;;;1.20;1.10;;;4.30;99.90;;;;;;5116993;27;20046;-84
2024/04/17 02:38:33;;;;;;;1.15;1.15;;;4.30;99.90;;;;;;5109111;27;20010;-83
2024/04/17 02:41:44;;;;;;;1.33;1.25;;;4.30;99.90;;;;;;5133885;27;20681;-81
2024/04/17 02:44:36;;;;;;;2.15;1.20;;;4.30;99.90;;;;;;5141535;27;20141;-82
2024/04/17 02:48:31;;;;;;;;;;;;;;;;;;;;;
2024/04/17 02:56:42;;;;;;;2.85;1.70;;;4.30;99.90;;;;;;5122714;27;20009;-86
2024/04/17 03:00:09;;;;;;;1.60;1.50;;;4.40;99.90;;;;;;5129825;27;20120;-84
2024/04/17 03:03:05;;;;;;;1.60;1.50;;;4.40;99.90;;;;;;5105030;27;20009;-82
2024/04/17 03:06:07;;;;;;;2.13;1.92;;;4.40;99.90;;;;;;5110950;27;20459;-83
2024/04/17 03:09:05;;;;;;;4.72;2.83;;;4.40;99.90;;;;;;5113403;27;20013;-82
2024/04/17 03:12:04;;;;;;;2.42;2.10;;;4.40;99.90;;;;;;5135807;27;20025;-85
2024/04/17 03:15:03;;;;;;;2.95;2.13;;;4.40;99.90;;;;;;5117863;27;20006;-82
2024/04/17 03:17:57;;;;;;;2.22;1.90;;;4.50;99.90;;;;;;5120390;27;20017;-85
2024/04/17 03:21:42;;;;;;;2.38;1.98;;;4.40;99.90;;;;;;5209984;22;20009;-83
2024/04/17 03:25:25;;;;;;;2.20;2.10;;;4.40;99.90;;;;;;5110841;27;20041;-83
2024/04/17 03:29:35;;;;;;;3.10;2.05;;;4.40;99.90;;;;;;5058246;28;20007;-83
2024/04/17 03:32:45;;;;;;;2.17;2.00;;;4.40;1.00;;;;;;5031907;28;20015;-85
2024/04/17 03:36:02;;;;;;;2.10;2.00;;;4.40;99.90;;;;;;5052913;28;20047;-82
2024/04/17 03:39:31;;;;;;;2.22;2.10;;;4.40;99.90;;;;;;5067266;28;20559;-83
2024/04/17 03:42:41;;;;;;;2.40;2.20;;;4.40;1.00;;;;;;5080869;27;20054;-83
2024/04/17 03:45:39;;;;;;;3.85;2.60;;;4.40;61.60;;;;;;5075283;28;20516;-83
2024/04/17 03:48:29;;;;;;;3.10;2.17;;;4.30;99.90;;;;;;5032663;28;20380;-85
2024/04/17 03:51:46;;;;;;;2.60;2.40;;;4.30;99.90;;;;;;5066366;28;20011;-82
2024/04/17 03:55:37;;;;;;;3.83;2.55;;;4.30;99.90;;;;;;5071922;28;20021;-82
2024/04/17 03:59:10;;;;;;;3.03;2.70;;;4.30;1.00;;;;;;5080224;28;20010;-85
2024/04/17 04:02:45;;;;;;;2.30;2.10;;;4.30;61.90;;;;;;5104843;27;20088;-85
2024/04/17 04:06:06;;;;;;;3.72;1.83;;;4.20;1.00;;;;;;5099528;27;20467;-86
2024/04/17 04:09:39;;;;;;;2.42;1.77;;;4.10;1.00;;;;;;5118849;27;20010;-84
2024/04/17 04:13:41;;;;;;;1.52;1.42;;;3.90;1.00;;;;;;5013161;28;20342;-86
2024/04/17 04:16:46;;;;;;;2.40;2.10;;;3.70;1.00;;;;;;4976443;28;20019;-87
2024/04/17 04:20:00;;;;;;;3.05;1.48;;;3.60;1.00;;;;;;4999969;28;20016;-83
2024/04/17 04:27:33;;;;;;;1.33;0.90;;;3.50;1.00;;;;;;5023267;28;20007;-84
2024/04/17 04:31:22;;;;;;;1.33;1.10;;;3.40;33.40;;;;;;5652432;22;20458;-84
2024/04/17 04:47:55;;;;;;;3.90;1.63;;;3.50;24.90;;;;;;5088869;27;20194;-83
2024/04/17 04:51:08;;;;;;;1.75;1.65;;;3.50;99.90;;;;;;5119531;27;20045;-85
2024/04/17 04:54:04;;;;;;;2.22;1.60;;;3.60;99.90;;;;;;5126075;27;20013;-85
2024/04/17 04:57:26;;;;;;;2.50;1.50;;;3.60;1.00;;;;;;5138187;27;20046;-82
2024/04/17 05:01:07;;;;;;;3.80;1.95;;;3.70;1.00;;;;;;5107276;27;20455;-83
2024/04/17 05:04:17;;;;;;;3.00;2.15;;;3.70;99.90;;;;;;4996852;28;20557;-84
2024/04/17 05:07:29;;;;;;;2.63;2.20;;;3.70;99.90;;;;;;4984371;28;20035;-85
2024/04/17 05:11:12;;;;;;;5.68;2.90;;;3.80;1.00;;;;;;5011281;28;20018;-84
2024/04/17 05:14:21;;;;;;;;;;;3.70;1.00;;;;;;5049429;28;20016;-83
2024/04/17 05:17:41;;;;;;;6.03;3.90;;;3.70;74.50;;;;;;5063662;28;19942;-83
2024/04/17 05:21:09;;;;;;;6.85;5.78;;;3.70;99.90;;;;;;5055769;28;20027;-81
2024/04/17 05:23:58;;;;;;;6.97;5.57;;;3.60;99.90;;;;;;5048279;28;20023;-81
2024/04/17 05:27:29;;;;;;;8.00;6.35;;;3.60;99.90;;;;;;5051656;28;20052;-79
2024/04/17 05:30:17;;;;;;;9.27;5.75;;;3.60;99.90;;;;;;5066247;28;20039;-77
2024/04/17 05:33:05;;;;;;;9.02;5.80;;;3.60;99.90;;;;;;5093734;27;20017;-80
2024/04/17 05:36:42;;;;;;;9.27;6.22;;;3.70;99.90;;;;;;5161810;27;20024;-78
2024/04/17 05:39:53;;;;;;;8.55;5.72;;;3.70;99.90;;;;;;5146502;27;20005;-81
2024/04/17 05:42:52;;;;;;;10.52;6.05;;;3.70;1.00;;;;;;5110550;27;21496;-82
2024/04/17 05:46:37;;;;;;;7.28;5.35;;;3.80;1.00;;;;;;5126280;27;20010;-83
2024/04/17 05:49:46;;;;;;;8.45;6.18;;;3.80;1.00;;;;;;5141603;27;20001;-83
2024/04/17 05:57:07;;;;;;;9.82;6.82;;;3.90;1.00;;;;;;5128820;27;20024;-82
2024/04/17 06:00:10;;;;;;;11.35;8.10;;;4.00;12.60;;;;;;5128910;27;20014;-83
2024/04/17 06:02:58;;;;;;;17.45;10.57;;;4.00;75.20;;;;;;5129504;27;20017;-82
2024/04/17 06:06:18;;;;;;;18.40;10.02;;;4.10;99.90;;;;;;5123285;27;20045;-82
2024/04/17 06:09:19;;;;;;;19.00;11.48;;;4.20;99.90;;;;;;5142118;27;20029;-82
2024/04/17 06:12:09;;;;;;;18.60;11.02;;;4.20;99.90;;;;;;5117958;27;20008;-82
2024/04/17 06:14:57;;;;;;;21.25;11.80;;;4.30;99.90;;;;;;5137631;27;20018;-80
2024/04/17 06:18:24;;;;;;;18.55;10.95;;;4.20;99.90;;;;;;5137248;27;20018;-81
2024/04/17 06:21:12;;;;;;;21.70;11.82;;;4.20;99.90;;;;;;5159602;27;20024;-85
2024/04/17 06:23:59;;;;;;;16.65;11.55;;;4.20;99.90;;;;;;5143672;27;20008;-84
2024/04/17 06:26:50;;;;;;;22.10;12.35;;;4.10;99.90;;;;;;5158422;27;20050;-82
2024/04/17 06:29:40;;;;;;;22.00;12.77;;;4.10;99.90;;;;;;5123737;27;20024;-83
2024/04/17 06:33:09;;;;;;;20.95;13.43;;;4.00;99.90;;;;;;5073721;27;20029;-82
2024/04/17 06:44:40;;;;;;;;;;;;;;;;;;;;;
2024/04/17 06:48:27;;;;;;;21.98;13.05;;;4.00;99.90;;;;;;5119150;27;20005;-85
2024/04/17 06:51:20;;;;;;;22.83;12.40;;;4.10;99.90;;;;;;5121376;27;20834;-83
2024/04/17 06:54:25;;;;;;;16.50;11.18;;;4.20;99.90;;;;;;5132068;27;20028;-84
2024/04/17 06:57:13;;;;;;;19.90;12.88;;;4.20;99.90;;;;;;5124751;27;20045;-85
2024/04/17 07:00:13;;;;;;;15.38;11.07;;;4.20;99.90;;;;;;5108462;27;20045;-84
2024/04/17 07:03:23;;;;;;;16.25;11.18;;;4.20;99.90;;;;;;5134061;27;20006;-84
2024/04/17 07:06:10;;;;;;;15.07;10.07;;;4.30;99.90;;;;;;5130177;27;20094;-85
2024/04/17 07:08:59;;;;;;;15.27;9.75;;;4.20;99.90;;;;;;5117816;27;20009;-83
2024/04/17 07:11:54;;;;;;;14.73;9.65;;;4.20;99.90;;;;;;5136420;27;20052;-81
2024/04/17 07:14:43;;;;;;;14.40;9.32;;;4.30;99.90;;;;;;5129199;27;20015;-81
2024/04/17 07:17:41;;;;;;;15.98;10.32;;;4.30;99.90;;;;;;5124381;27;20112;-82
2024/04/17 07:20:28;;;;;;;17.08;10.23;;;4.30;99.90;;;;;;5121050;27;20487;-83
2024/04/17 07:23:20;;;;;;;15.55;10.57;;;4.30;99.90;;;;;;5112531;27;20024;-82
2024/04/17 07:26:16;;;;;;;16.52;10.35;;;4.40;99.90;;;;;;5128004;27;20723;-80
2024/04/17 07:29:26;;;;;;;18.13;10.85;;;4.40;99.90;;;;;;5116660;27;20009;-78
2024/04/17 07:32:18;;;;;;;17.42;10.35;;;4.30;99.90;;;;;;5119639;27;20017;-81
2024/04/17 07:35:10;;;;;;;18.40;10.75;;;4.20;99.90;;;;;;5120761;27;20009;-77
2024/04/17 07:37:58;;;;;;;12.82;7.20;;;4.10;99.90;;;;;;5122607;27;20005;-80
2024/04/17 07:41:11;;;;;;;9.23;6.32;;;3.90;99.90;;;;;;5129758;27;20044;-80
2024/04/17 07:44:09;;;;;;;8.65;4.88;;;3.80;99.90;;;;;;5134530;27;20705;-83
2024/04/17 07:47:22;;;;;;;6.28;4.90;;;3.80;99.90;;;;;;5145429;27;20020;-85
2024/04/17 07:50:18;;;;;;;6.68;5.05;;;3.80;99.90;;;;;;5450059;22;20017;-81
2024/04/17 07:53:14;;;;;;;8.27;5.00;;;3.70;46.30;;;;;;5148533;27;20095;-81
2024/04/17 07:56:23;;;;;;;6.55;4.47;;;3.60;4.70;;;;;;5146071;27;20020;-84
2024/04/17 07:59:12;;;;;;;8.48;4.50;;;3.50;1.00;;;;;;5109313;27;20014;-82
2024/04/17 08:02:49;;;;;;;9.48;5.20;;;3.50;20.80;;;;;;5094057;27;20029;-83
2024/04/17 08:05:51;;;;;;;10.40;7.20;;;3.50;53.60;;;;;;5126545;27;20023;-82
2024/04/17 08:08:53;;;;;;;11.57;7.88;;;3.50;1.00;;;;;;5122083;27;20013;-83
2024/04/17 08:11:44;;;;;;;8.50;5.82;;;3.50;18.00;;;;;;5122377;27;20017;-83
2024/04/17 08:14:34;;;;;;;6.32;4.88;;;3.50;22.70;;;;;;5122341;27;20005;-85
2024/04/17 08:17:21;;;;;;;6.57;5.10;;;3.60;40.70;;;;;;5142057;27;20020;-82
2024/04/17 08:20:09;;;;;;;6.10;4.32;;;3.60;26.50;;;;;;5118062;27;20031;-81
2024/04/17 08:22:56;;;;;;;6.95;4.88;;;3.70;77.00;;;;;;5121821;27;20013;-84
2024/04/17 08:25:44;;;;;;;6.72;4.60;;;3.80;98.40;;;;;;5123755;27;20024;-83
2024/04/17 08:28:38;;;;;;;5.45;4.63;;;4.00;99.90;;;;;;5123308;27;20005;-83
2024/04/17 08:31:37;;;;;;;6.22;4.65;;;4.10;99.90;;;;;;5121791;27;20017;-81
2024/04/17 08:34:26;;;;;;;7.05;4.85;;;4.30;99.90;;;;;;5116345;27;20009;-84
2024/04/17 08:37:38;;;;;;;6.63;4.45;;;4.60;99.90;;;;;;5128387;27;20017;-83
2024/04/17 08:40:29;;;;;;;5.47;4.85;;;4.90;99.90;;;;;;5143011;27;20021;-83
2024/04/17 08:43:26;;;;;;;6.18;5.07;;;5.10;99.90;;;;;;5125896;27;20561;-84
2024/04/17 08:46:24;;;;;;;6.85;5.45;;;5.20;1.00;;;;;;5149076;27;20006;-83
2024/04/17 08:52:59;;;;;;;10.65;6.93;;;5.50;1.00;;;;;;5113371;27;20009;-83
2024/04/17 08:56:12;;;;;;;10.20;7.55;;;5.80;1.00;;;;;;5126683;27;20049;-84
2024/04/17 08:59:24;;;;;;;12.13;7.13;;;6.30;59.10;;;;;;5113943;27;20006;-82
2024/04/17 09:03:11;;;;;;;8.82;6.85;;;6.70;1.00;;;;;;5126568;27;20005;-82
2024/04/17 09:06:08;;;;;;;8.45;6.68;;;6.50;99.90;;;;;;5129123;27;20005;-84
2024/04/17 09:09:04;;;;;;;7.70;4.00;;;6.10;1.00;;;;;;5127700;27;20021;-82
2024/04/17 09:11:55;;;;;;;5.03;3.65;;;5.60;22.30;;;;;;5140247;27;20013;-83
2024/04/17 09:14:47;;;;;;;;;;;5.30;99.90;;;;;;5130208;27;20005;-84
2024/04/17 09:17:43;;;;;;;5.85;3.80;;;5.30;99.90;;;;;;5122015;27;19997;-85
2024/04/17 09:21:00;;;;;;;4.15;2.78;;;5.50;1.00;;;;;;5121726;27;20040;-83
2024/04/17 09:23:48;;;;;;;3.50;3.20;;;5.50;99.90;;;;;;5143268;27;20005;-84
2024/04/17 09:26:42;;;;;;;3.75;2.97;;;5.40;96.40;;;;;;5132305;27;20005;-83
2024/04/17 09:29:35;;;;;;;5.75;3.55;;;5.40;23.50;;;;;;5125682;27;20001;-83
2024/04/17 09:32:36;;;;;;;5.22;3.47;;;5.50;22.10;;;;;;5140013;27;20027;-82
2024/04/17 09:35:38;;;;;;;7.70;5.53;;;5.70;1.00;;;;;;5134615;27;20020;-81
2024/04/17 09:38:48;;;;;;;8.05;5.78;;;5.80;1.00;;;;;;5119323;27;20053;-85
2024/04/17 09:42:02;;;;;;;10.73;6.05;;;5.70;99.90;;;;;;5127329;27;20029;-79
2024/04/17 09:48:24;;;;;;;9.60;7.20;;;6.20;99.90;;;;;;5304179;22;20207;-84
2024/04/17 09:51:28;;;;;;;11.25;7.10;;;6.20;99.90;;;;;;5127508;27;20012;-84
2024/04/17 09:54:26;;;;;;;12.50;7.47;;;6.30;1.00;;;;;;5107651;27;20041;-85
2024/04/17 09:57:19;;;;;;;12.98;9.23;;;6.60;1.00;;;;;;5117089;27;20386;-84
2024/04/17 10:00:27;;;;;;;14.02;8.75;;;6.50;15.00;;;;;;5019082;27;20451;-83
2024/04/17 10:04:02;;;;;;;;;;;;;;;;;;;;;
2024/04/17 10:07:13;;;;;;;13.25;8.95;;;6.40;99.90;;;;;;5098477;27;20022;-78
2024/04/17 10:10:38;;;;;;;13.10;8.32;;;6.30;1.00;;;;;;4984270;28;20024;-81
2024/04/17 10:13:30;;;;;;;10.63;8.25;;;6.30;1.00;;;;;;5003124;28;20525;-82
2024/04/17 10:16:43;;;;;;;10.88;8.18;;;6.20;99.90;;;;;;5004218;28;20020;-85
2024/04/17 10:19:34;;;;;;;13.88;7.90;;;6.20;99.90;;;;;;5086368;27;20018;-85
2024/04/17 10:22:56;;;;;;;;;;;;;;;;;;;;;
2024/04/17 10:30:22;;;;;;;11.77;8.43;;;6.10;99.90;;;;;;5005002;28;20019;-85
2024/04/17 10:41:08;;;;;;;;;;;;;;;;;;;;;
2024/04/17 10:44:02;;;;;;;11.82;8.65;;;6.80;99.90;;;;;;5153486;27;20563;-83
2024/04/17 10:47:03;;;;;;;16.35;9.18;;;7.30;99.90;;;;;;5146576;27;20480;-82
2024/04/17 10:50:56;;;;;;;15.45;8.45;;;8.00;99.90;;;;;;5121306;27;20009;-83
2024/04/17 10:54:14;;;;;;;12.15;7.22;;;9.40;99.90;;;;;;5105466;27;20009;-82
2024/04/17 11:01:07;;;;;;;10.07;5.53;;;10.90;1.00;;;;;;5133070;27;19929;-84
2024/04/17 11:04:34;;;;;;;7.80;4.80;;;10.60;99.90;;;;;;5116811;27;20390;-84
2024/04/17 11:10:32;;;;;;;10.05;5.93;;;9.50;99.90;;;;;;5126459;27;20516;-83
2024/04/17 11:13:19;;;;;;;11.93;6.97;;;9.00;99.90;;;;;;5124041;27;20160;-83
2024/04/17 11:16:13;;;;;;;12.80;7.13;;;8.80;99.90;;;;;;5119313;27;20009;-82
2024/04/17 11:19:25;;;;;;;9.23;5.82;;;9.50;99.90;;;;;;5125492;27;20020;-85
2024/04/17 11:22:19;;;;;;;15.10;6.35;;;10.20;99.90;;;;;;5115585;27;20021;-81
2024/04/17 11:25:19;;;;;;;13.50;5.45;;;10.00;99.90;;;;;;5125025;27;20013;-81
2024/04/17 11:28:16;;;;;;;12.68;5.78;;;9.80;51.00;;;;;;5127443;27;20077;-85
2024/04/17 11:31:13;;;;;;;12.70;6.00;;;9.50;1.00;;;;;;5119510;27;20020;-84
2024/04/17 11:34:26;;;;;;;10.20;6.00;;;9.20;1.00;;;;;;5127909;27;20300;-84
2024/04/17 11:37:17;;;;;;;8.65;6.10;;;8.80;1.00;;;;;;5118071;27;20036;-81
2024/04/17 11:40:18;;;;;;;9.57;5.72;;;8.70;1.00;;;;;;5114854;27;20020;-82
2024/04/17 11:43:26;;;;;;;10.88;6.45;;;8.60;1.00;;;;;;5115292;27;20085;-84
2024/04/17 11:46:31;;;;;;;11.25;6.13;;;8.80;1.00;;;;;;5115559;27;20006;-81
2024/04/17 11:49:26;;;;;;;8.38;4.95;;;9.00;1.00;;;;;;5120725;27;20028;-81
2024/04/17 11:52:22;;;;;;;12.02;5.78;;;9.10;1.00;;;;;;5122730;27;20020;-81
2024/04/17 11:55:38;;;;;;;10.60;5.65;;;9.10;1.00;;;;;;5123640;27;20462;-82
2024/04/17 11:58:59;;;;;;;8.65;4.97;;;9.50;99.90;;;;;;5119037;27;20034;-82
2024/04/17 12:02:24;;;;;;;10.55;4.47;;;9.80;99.90;;;;;;5122235;27;20009;-81
2024/04/17 12:06:10;;;;;;;8.52;4.35;;;10.40;99.90;;;;;;5120245;27;20209;-82
2024/04/17 12:08:59;;;;;;;8.48;3.40;;;11.40;99.90;;;;;;5139932;27;20023;-84
2024/04/17 12:12:06;;;;;;;8.90;3.40;;;13.20;99.90;;;;;;5127403;27;20776;-83
2024/04/17 12:18:31;;;;;;;7.85;3.38;;;14.50;99.90;;;;;;5102571;27;20927;-82
2024/04/17 12:21:19;;;;;;;8.25;3.47;;;14.50;99.90;;;;;;5137303;27;20013;-82
2024/04/17 12:27:51;;;;;;;6.18;3.50;;;13.00;68.80;;;;;;5142110;27;20005;-84
2024/04/17 12:30:46;;;;;;;7.40;3.63;;;12.30;44.40;;;;;;5158822;27;20024;-83
2024/04/17 12:33:46;;;;;;;6.78;3.95;;;11.50;36.20;;;;;;5127216;27;20028;-83
2024/04/17 12:36:49;;;;;;;9.60;4.18;;;10.80;42.80;;;;;;5154187;27;20017;-82
2024/04/17 12:39:46;;;;;;;10.07;4.57;;;9.30;60.00;;;;;;5136842;27;20015;-83
2024/04/17 12:42:53;;;;;;;6.28;3.80;;;7.80;99.90;;;;;;5139107;27;20084;-81
2024/04/17 12:45:43;;;;;;;7.88;4.18;;;6.30;99.90;;;;;;5151235;27;20009;-78
2024/04/17 12:48:32;;;;;;;5.60;3.80;;;5.50;99.90;;;;;;5137211;27;20308;-81
2024/04/17 12:51:23;;;;;;;5.85;3.95;;;5.10;99.90;;;;;;5140904;27;20061;-78
2024/04/17 12:54:11;;;;;;;6.35;4.25;;;4.70;1.00;;;;;;5145963;27;20009;-84
2024/04/17 12:57:07;;;;;;;9.00;4.57;;;4.50;1.00;;;;;;5150772;27;20017;-82
2024/04/17 13:00:01;;;;;;;6.72;4.75;;;4.20;99.90;;;;;;5137583;27;20005;-83
2024/04/17 13:02:56;;;;;;;12.30;5.45;;;4.00;99.90;;;;;;5129088;27;20009;-84
2024/04/17 13:05:43;;;;;;;12.30;6.03;;;3.90;99.90;;;;;;5132930;27;20017;-85
2024/04/17 13:08:40;;;;;;;10.63;6.53;;;4.00;1.00;;;;;;5132957;27;20026;-85
2024/04/17 13:11:28;;;;;;;9.70;6.32;;;4.10;1.00;;;;;;5133720;27;20019;-83
2024/04/17 13:14:15;;;;;;;7.30;5.70;;;4.20;99.90;;;;;;5124653;27;20021;-84
2024/04/17 13:17:13;;;;;;;9.73;6.00;;;4.30;99.90;;;;;;5125086;27;20045;-85
2024/04/17 13:20:22;;;;;;;9.50;6.25;;;4.40;99.90;;;;;;5130811;27;20026;-84
2024/04/17 13:23:35;;;;;;;8.73;5.75;;;4.60;99.90;;;;;;5124750;27;20024;-84
2024/04/17 13:26:32;;;;;;;7.70;5.47;;;4.70;99.90;;;;;;5133213;27;20084;-85
2024/04/17 13:29:32;;;;;;;10.80;5.78;;;4.90;99.90;;;;;;5129279;27;20024;-82
2024/04/17 13:32:55;;;;;;;8.65;5.15;;;5.10;99.90;;;;;;5129037;27;20080;-85
2024/04/17 13:35:42;;;;;;;7.60;4.85;;;5.30;99.90;;;;;;5133945;27;20411;-82
2024/04/17 13:39:21;;;;;;;12.07;5.03;;;5.60;99.90;;;;;;5126550;27;20040;-84
2024/04/17 13:43:20;;;;;;;7.45;4.72;;;6.10;99.90;;;;;;5150523;27;20064;-84
2024/04/17 13:46:46;;;;;;;8.13;4.55;;;7.10;99.90;;;;;;5155507;27;20009;-80
2024/04/17 13:49:51;;;;;;;5.28;3.42;;;8.80;99.90;;;;;;5165056;27;20008;-83
2024/04/17 13:52:39;;;;;;;5.10;2.60;;;10.40;99.90;;;;;;5138100;27;20066;-83
2024/04/17 13:55:32;;;;;;;4.03;2.10;;;11.90;99.90;;;;;;5138664;27;20025;-82
2024/04/17 13:59:00;;;;;;;9.80;2.63;;;13.30;1.00;;;;;;5126821;27;20033;-84
2024/04/17 14:01:58;;;;;;;5.13;2.10;;;14.70;99.90;;;;;;5121289;27;20009;-84
2024/04/17 14:04:46;;;;;;;5.20;3.25;;;16.10;99.90;;;;;;5125617;27;20080;-83
2024/04/17 14:07:45;;;;;;;4.82;2.50;;;16.70;99.90;;;;;;5108123;27;20002;-82
2024/04/17 14:10:36;;;;;;;5.78;2.22;;;17.10;99.90;;;;;;5119959;27;20005;-84
2024/04/17 14:13:33;;;;;;;4.00;2.28;;;15.70;53.00;;;;;;5122221;27;20019;-83
2024/04/17 14:16:30;;;;;;;4.72;2.30;;;14.10;19.50;;;;;;5127795;27;20021;-83
2024/04/17 14:19:26;;;;;;;4.35;2.17;;;14.20;20.20;;;;;;5116280;27;20027;-84
2024/04/17 14:22:23;;;;;;;5.10;2.20;;;14.90;9.60;;;;;;5128730;27;20009;-86
2024/04/17 14:25:34;;;;;;;3.90;1.83;;;16.30;1.00;;;;;;5128680;27;20009;-84
2024/04/17 14:28:31;;;;;;;3.42;1.95;;;16.50;1.00;;;;;;5123863;27;20483;-83
2024/04/17 14:31:19;;;;;;;3.53;1.90;;;16.20;1.00;;;;;;5118087;27;20020;-83
2024/04/17 14:34:18;;;;;;;5.15;2.60;;;15.60;1.00;;;;;;5115587;27;20090;-82
2024/04/17 14:37:43;;;;;;;;;;;;;;;;;;;;;
2024/04/17 14:41:03;;;;;;;5.38;2.55;;;14.00;1.00;;;;;;5119837;27;20029;-82
2024/04/17 14:44:14;;;;;;;3.08;2.33;;;14.10;1.00;;;;;;5126120;27;20001;-80
2024/04/17 14:47:32;;;;;;;4.40;2.30;;;14.40;1.00;;;;;;5034550;27;20045;-84
2024/04/17 14:50:23;;;;;;;2.22;2.03;;;14.30;1.00;;;;;;5117086;27;20005;-83
2024/04/17 14:53:10;;;;;;;6.05;2.53;;;14.70;1.00;;;;;;5126843;27;20751;-84
2024/04/17 14:55:59;;;;;;;4.95;2.67;;;13.00;1.00;;;;;;5131357;27;20117;-82
2024/04/17 14:59:09;;;;;;;3.63;3.03;;;11.50;1.00;;;;;;5129653;27;20017;-83
2024/04/17 15:02:01;;;;;;;4.53;2.92;;;10.60;1.00;;;;;;5121533;27;20005;-83
2024/04/17 15:04:51;;;;;;;6.93;3.47;;;9.90;1.00;;;;;;5116882;27;20009;-83
2024/04/17 15:07:39;;;;;;;11.60;4.85;;;9.20;1.00;;;;;;5129742;27;20019;-85
2024/04/17 15:10:32;;;;;;;11.38;5.05;;;9.20;1.00;;;;;;5127180;27;20016;-82
2024/04/17 15:13:43;;;;;;;5.57;3.58;;;8.80;1.00;;;;;;5126641;27;20017;-82
2024/04/17 15:16:40;;;;;;;5.43;3.38;;;8.60;29.00;;;;;;5130212;27;20009;-83
2024/04/17 15:19:33;;;;;;;6.10;3.10;;;9.70;54.10;;;;;;5128039;27;20009;-84
2024/04/17 15:22:20;;;;;;;10.25;3.40;;;11.60;28.10;;;;;;5122903;27;20017;-83
2024/04/17 15:25:17;;;;;;;6.35;2.58;;;12.80;3.30;;;;;;5120608;27;20137;-84
2024/04/17 15:28:04;;;;;;;4.50;2.00;;;13.10;1.00;;;;;;5129225;27;20005;-82
2024/04/17 15:31:22;;;;;;;4.07;2.13;;;12.80;1.00;;;;;;5126036;27;20001;-84
2024/04/17 15:34:18;;;;;;;2.13;1.80;;;13.10;1.00;;;;;;5115559;27;20021;-84
2024/04/17 15:37:24;;;;;;;3.55;1.40;;;13.90;1.00;;;;;;5129538;27;20082;-82
2024/04/17 15:40:18;;;;;;;4.07;1.70;;;14.50;1.00;;;;;;5132134;27;20009;-82
2024/04/17 15:49:32;;;;;;;2.85;1.65;;;13.70;1.00;;;;;;5123893;27;20020;-83
2024/04/17 15:52:23;;;;;;;2.33;1.58;;;13.50;1.00;;;;;;5128472;27;20589;-82
2024/04/17 15:55:20;;;;;;;1.65;1.25;;;12.90;1.00;;;;;;5126518;27;20009;-84
2024/04/17 15:58:13;;;;;;;2.13;1.30;;;12.40;1.00;;;;;;5125766;27;20037;-84
2024/04/17 16:01:09;;;;;;;4.20;1.30;;;11.70;1.00;;;;;;5138270;27;19994;-81
2024/04/17 16:04:04;;;;;;;3.58;1.60;;;11.50;1.00;;;;;;5141375;27;20001;-80
2024/04/17 16:06:53;;;;;;;4.47;1.70;;;10.40;1.00;;;;;;5138671;27;20023;-81
2024/04/17 16:09:47;;;;;;;4.28;1.83;;;9.40;1.00;;;;;;5125688;27;20017;-81
2024/04/17 16:16:06;;;;;;;2.42;2.10;;;8.10;1.00;;;;;;5120948;27;20085;-82
2024/04/17 16:19:06;;;;;;;2.58;1.95;;;7.70;1.00;;;;;;5139790;27;20085;-82
2024/04/17 16:22:05;;;;;;;3.03;2.45;;;7.50;1.00;;;;;;5148307;27;20014;-83
2024/04/17 16:25:17;;;;;;;8.82;2.97;;;7.40;1.00;;;;;;5136657;27;20020;-83
2024/04/17 16:28:37;;;;;;;6.20;3.40;;;7.30;1.00;;;;;;5120402;27;20017;-83
2024/04/17 16:31:31;;;;;;;7.65;3.38;;;7.20;1.00;;;;;;5126215;27;20080;-83
2024/04/17 16:34:22;;;;;;;4.53;3.08;;;7.30;1.00;;;;;;5120522;27;20006;-82
2024/04/17 16:37:23;;;;;;;2.70;2.03;;;7.30;1.00;;;;;;5125135;27;20348;-82
2024/04/17 16:40:14;;;;;;;2.83;2.40;;;7.30;1.00;;;;;;5127060;27;20425;-83
2024/04/17 16:43:02;;;;;;;3.88;2.30;;;7.30;1.00;;;;;;5122818;27;20028;-83
2024/04/17 16:46:14;;;;;;;3.28;1.80;;;7.30;1.00;;;;;;5120170;27;20013;-84
2024/04/17 16:49:13;;;;;;;8.18;3.17;;;7.30;1.00;;;;;;5114675;27;20002;-83
2024/04/17 16:52:23;;;;;;;5.75;2.95;;;7.40;1.00;;;;;;5122084;27;20383;-83
2024/04/17 16:55:39;;;;;;;6.18;2.70;;;7.50;1.00;;;;;;5122524;27;20049;-85
2024/04/17 16:58:43;;;;;;;5.10;2.60;;;7.60;1.00;;;;;;5128650;27;20033;-83
2024/04/17 17:01:30;;;;;;;4.55;2.47;;;7.50;1.00;;;;;;5124258;27;20005;-83
2024/04/17 17:04:28;;;;;;;4.68;2.95;;;7.50;1.00;;;;;;5127012;27;20049;-82
2024/04/17 17:07:20;;;;;;;7.50;3.47;;;7.40;1.00;;;;;;5118090;27;20582;-84
2024/04/17 17:10:15;;;;;;;6.10;3.10;;;7.30;5.50;;;;;;5148578;27;20013;-83
2024/04/17 17:13:07;;;;;;;6.68;3.65;;;7.30;14.00;;;;;;5118320;27;20014;-82
2024/04/17 17:16:05;;;;;;;4.50;3.30;;;7.20;27.20;;;;;;5120646;27;20005;-82
2024/04/17 17:19:08;;;;;;;7.50;2.80;;;7.00;49.10;;;;;;5135738;27;20488;-83
2024/04/17 17:22:10;;;;;;;4.75;2.85;;;6.70;56.30;;;;;;5127478;27;20005;-83
2024/04/17 17:25:07;;;;;;;5.07;3.47;;;6.40;90.10;;;;;;5124794;27;20025;-81
2024/04/17 17:27:54;;;;;;;5.32;3.42;;;6.10;99.90;;;;;;5133290;27;20015;-81
2024/04/17 17:30:42;;;;;;;6.78;4.07;;;5.90;99.90;;;;;;5128576;27;20065;-83
2024/04/17 17:37:07;;;;;;;4.00;3.05;;;5.60;99.90;;;;;;5155087;27;20009;-81
2024/04/17 17:39:54;;;;;;;5.82;3.40;;;5.40;99.90;;;;;;5144704;27;20020;-81
2024/04/17 17:42:55;;;;;;;10.35;3.78;;;5.20;99.90;;;;;;5040283;28;20011;-80
2024/04/17 17:46:20;;;;;;;6.30;3.50;;;5.00;99.90;;;;;;5134288;27;20014;-82
2024/04/17 17:49:16;;;;;;;4.45;3.28;;;4.90;99.90;;;;;;5148283;27;20062;-80
2024/04/17 17:52:23;;;;;;;5.75;4.35;;;4.70;1.00;;;;;;5122415;27;20005;-83
2024/04/17 18:02:42;;;;;;;11.30;4.32;;;4.30;23.20;;;;;;5119725;27;20093;-82
2024/04/17 18:06:33;;;;;;;6.20;3.70;;;4.20;99.90;;;;;;5138223;27;20056;-82
2024/04/17 18:09:32;;;;;;;7.03;4.22;;;4.10;99.90;;;;;;5174248;22;20013;-82
2024/04/17 18:12:20;;;;;;;6.03;4.43;;;4.10;99.90;;;;;;5139630;27;20053;-84
2024/04/17 18:15:08;;;;;;;5.63;4.30;;;4.10;99.90;;;;;;5121968;27;20470;-82
2024/04/17 18:27:08;;;;;;;;;;;;;;;;;;;;;
2024/04/17 18:30:42;;;;;;;;;;;3.90;5.40;;;;;;5116134;27;21199;-82
2024/04/17 18:34:47;;;;;;;4.68;4.18;;;3.80;99.90;;;;;;5091794;27;19957;-84
2024/04/17 18:37:58;;;;;;;7.97;5.00;;;3.80;99.90;;;;;;5119306;27;20065;-82
2024/04/17 18:40:49;;;;;;;6.53;5.07;;;3.60;99.90;;;;;;5121643;27;20015;-82
2024/04/17 18:44:03;;;;;;;8.10;5.20;;;3.50;99.90;;;;;;5123613;27;20009;-83
2024/04/17 18:47:12;;;;;;;6.72;4.82;;;3.40;99.90;;;;;;5130898;27;20010;-84
2024/04/17 18:50:21;;;;;;;7.73;4.90;;;3.30;99.90;;;;;;5111357;27;20079;-82
2024/04/17 18:53:25;;;;;;;6.38;4.47;;;3.20;99.90;;;;;;5134933;27;20222;-81
2024/04/17 18:56:13;;;;;;;10.27;5.80;;;3.10;1.00;;;;;;5129423;27;20016;-83
2024/04/17 18:59:06;;;;;;;11.73;5.65;;;3.00;1.00;;;;;;5127594;27;20037;-83
2024/04/17 19:01:54;;;;;;;13.73;7.00;;;2.90;1.00;;;;;;5128986;27;20044;-83
2024/04/17 19:04:51;;;;;;;12.80;6.72;;;2.90;1.00;;;;;;5126351;27;20005;-83
2024/04/17 19:07:47;;;;;;;11.27;6.57;;;2.90;50.60;;;;;;5130684;27;20013;-82
2024/04/17 19:10:57;;;;;;;16.55;10.45;;;2.80;99.90;;;;;;5140792;27;20264;-82